sensor_id;sensor_type;location;lat;lon;timestamp;temperature;humidity
13052;DHT22;6592;47.484;9.726;2022-12-11T00:01:17;1.20;99.90
13052;DHT22;6592;47.484;9.726;2022-12-11T00:03:47;1.20;99.90
13052;DHT22;6592;47.484;9.726;2022-12-11T00:06:19;1.20;99.90
13052;DHT22;6592;47.484;9.726;2022-12-11T00:08:51;1.20;99.90
13052;DHT22;6592;47.484;9.726;2022-12-11T00:11:20;1.20;99.90
13052;DHT22;6592;47.484;9.726;2022-12-11T00:13:48;1.20;99.90
13052;DHT22;6592;47.484;9.726;2022-12-11T00:16:17;1.20;99.90
13052;DHT22;6592;47.484;9.726;2022-12-11T00:18:52;1.20;99.90
13052;DHT22;6592;47.484;9.726;2022-12-11T00:21:22;1.20;99.90
13052;DHT22;6592;47.484;9.726;2022-12-11T00:23:50;1.20;99.90
13052;DHT22;6592;47.484;9.726;2022-12-11T00:26:18;1.20;99.90
13052;DHT22;6592;47.484;9.726;2022-12-11T00:28:47;1.10;99.90
13052;DHT22;6592;47.484;9.726;2022-12-11T00:31:16;1.20;99.90
13052;DHT22;6592;47.484;9.726;2022-12-11T00:33:46;1.20;99.90
13052;DHT22;6592;47.484;9.726;2022-12-11T00:36:17;1.20;99.90
13052;DHT22;6592;47.484;9.726;2022-12-11T00:38:47;1.00;99.90
13052;DHT22;6592;47.484;9.726;2022-12-11T00:41:16;1.20;99.90
13052;DHT22;6592;47.484;9.726;2022-12-11T00:43:44;1.20;99.90
13052;DHT22;6592;47.484;9.726;2022-12-11T00:46:13;1.20;99.90
13052;DHT22;6592;47.484;9.726;2022-12-11T00:48:41;1.40;99.90
13052;DHT22;6592;47.484;9.726;2022-12-11T00:51:10;1.20;99.90
13052;DHT22;6592;47.484;9.726;2022-12-11T00:53:38;1.30;99.90
13052;DHT22;6592;47.484;9.726;2022-12-11T00:56:13;1.30;99.90
13052;DHT22;6592;47.484;9.726;2022-12-11T00:58:42;1.30;99.90
13052;DHT22;6592;47.484;9.726;2022-12-11T01:01:11;1.20;99.90
13052;DHT22;6592;47.484;9.726;2022-12-11T01:03:41;1.30;99.90
13052;DHT22;6592;47.484;9.726;2022-12-11T01:06:12;1.30;99.90
13052;DHT22;6592;47.484;9.726;2022-12-11T01:08:41;1.20;99.90
13052;DHT22;6592;47.484;9.726;2022-12-11T01:11:13;1.20;99.90
13052;DHT22;6592;47.484;9.726;2022-12-11T01:13:41;1.20;99.90
13052;DHT22;6592;47.484;9.726;2022-12-11T01:16:10;1.20;99.90
13052;DHT22;6592;47.484;9.726;2022-12-11T01:18:39;1.20;99.90
13052;DHT22;6592;47.484;9.726;2022-12-11T01:21:09;1.20;99.90
13052;DHT22;6592;47.484;9.726;2022-12-11T01:23:38;1.10;99.90
13052;DHT22;6592;47.484;9.726;2022-12-11T01:26:08;1.10;99.90
13052;DHT22;6592;47.484;9.726;2022-12-11T01:28:39;1.20;99.90
13052;DHT22;6592;47.484;9.726;2022-12-11T01:31:08;1.20;99.90
13052;DHT22;6592;47.484;9.726;2022-12-11T01:33:37;1.10;99.90
13052;DHT22;6592;47.484;9.726;2022-12-11T01:36:07;1.20;99.90
13052;DHT22;6592;47.484;9.726;2022-12-11T01:38:36;1.10;99.90
13052;DHT22;6592;47.484;9.726;2022-12-11T01:41:05;1.10;99.90
13052;DHT22;6592;47.484;9.726;2022-12-11T01:43:33;1.00;99.90
13052;DHT22;6592;47.484;9.726;2022-12-11T01:46:03;1.00;99.90
13052;DHT22;6592;47.484;9.726;2022-12-11T01:48:32;1.00;99.90
13052;DHT22;6592;47.484;9.726;2022-12-11T01:51:07;1.00;99.90
13052;DHT22;6592;47.484;9.726;2022-12-11T01:53:39;1.00;99.90
13052;DHT22;6592;47.484;9.726;2022-12-11T01:56:09;0.80;99.90
13052;DHT22;6592;47.484;9.726;2022-12-11T01:58:40;0.90;99.90
13052;DHT22;6592;47.484;9.726;2022-12-11T02:01:13;0.90;99.90
13052;DHT22;6592;47.484;9.726;2022-12-11T02:03:42;0.80;99.90
13052;DHT22;6592;47.484;9.726;2022-12-11T02:06:29;0.80;99.90
13052;DHT22;6592;47.484;9.726;2022-12-11T02:08:58;0.80;99.90
13052;DHT22;6592;47.484;9.726;2022-12-11T02:11:32;0.80;99.90
13052;DHT22;6592;47.484;9.726;2022-12-11T02:14:05;0.80;99.90
13052;DHT22;6592;47.484;9.726;2022-12-11T02:16:42;0.90;99.90
13052;DHT22;6592;47.484;9.726;2022-12-11T02:19:21;0.90;99.90
13052;DHT22;6592;47.484;9.726;2022-12-11T02:21:58;0.90;99.90
13052;DHT22;6592;47.484;9.726;2022-12-11T02:24:32;0.90;99.90
13052;DHT22;6592;47.484;9.726;2022-12-11T02:27:19;0.90;99.90
13052;DHT22;6592;47.484;9.726;2022-12-11T02:29:53;0.90;99.90
13052;DHT22;6592;47.484;9.726;2022-12-11T02:32:28;0.90;99.90
13052;DHT22;6592;47.484;9.726;2022-12-11T02:35:02;0.90;99.90
13052;DHT22;6592;47.484;9.726;2022-12-11T02:37:32;0.90;99.90
13052;DHT22;6592;47.484;9.726;2022-12-11T02:40:03;0.90;99.90
13052;DHT22;6592;47.484;9.726;2022-12-11T02:42:34;0.90;99.90
13052;DHT22;6592;47.484;9.726;2022-12-11T02:45:07;0.90;99.90
13052;DHT22;6592;47.484;9.726;2022-12-11T02:47:37;0.90;99.90
13052;DHT22;6592;47.484;9.726;2022-12-11T02:50:09;0.90;99.90
13052;DHT22;6592;47.484;9.726;2022-12-11T02:52:40;0.90;99.90
13052;DHT22;6592;47.484;9.726;2022-12-11T02:55:11;0.90;99.90
13052;DHT22;6592;47.484;9.726;2022-12-11T02:57:44;0.90;99.90
13052;DHT22;6592;47.484;9.726;2022-12-11T03:00:16;0.90;99.90
13052;DHT22;6592;47.484;9.726;2022-12-11T03:02:45;0.90;99.90
13052;DHT22;6592;47.484;9.726;2022-12-11T03:05:14;0.80;99.90
13052;DHT22;6592;47.484;9.726;2022-12-11T03:07:43;0.80;99.90
13052;DHT22;6592;47.484;9.726;2022-12-11T03:10:15;0.90;99.90
13052;DHT22;6592;47.484;9.726;2022-12-11T03:12:46;0.90;99.90
13052;DHT22;6592;47.484;9.726;2022-12-11T03:15:33;0.90;99.90
13052;DHT22;6592;47.484;9.726;2022-12-11T03:18:11;0.90;99.90
13052;DHT22;6592;47.484;9.726;2022-12-11T03:20:44;0.90;99.90
13052;DHT22;6592;47.484;9.726;2022-12-11T03:23:18;0.90;99.90
13052;DHT22;6592;47.484;9.726;2022-12-11T03:25:53;0.80;99.90
13052;DHT22;6592;47.484;9.726;2022-12-11T03:28:26;0.90;99.90
13052;DHT22;6592;47.484;9.726;2022-12-11T03:30:57;0.90;99.90
13052;DHT22;6592;47.484;9.726;2022-12-11T03:33:32;1.00;99.90
13052;DHT22;6592;47.484;9.726;2022-12-11T03:36:05;0.90;99.90
13052;DHT22;6592;47.484;9.726;2022-12-11T03:38:37;1.00;99.90
13052;DHT22;6592;47.484;9.726;2022-12-11T03:41:09;0.90;99.90
13052;DHT22;6592;47.484;9.726;2022-12-11T03:43:39;0.80;99.90
13052;DHT22;6592;47.484;9.726;2022-12-11T03:46:11;0.80;99.90
13052;DHT22;6592;47.484;9.726;2022-12-11T03:48:42;0.70;99.90
13052;DHT22;6592;47.484;9.726;2022-12-11T03:51:12;0.70;99.90
13052;DHT22;6592;47.484;9.726;2022-12-11T03:53:40;0.70;99.90
13052;DHT22;6592;47.484;9.726;2022-12-11T03:56:11;0.70;99.90
13052;DHT22;6592;47.484;9.726;2022-12-11T03:58:40;0.70;99.90
13052;DHT22;6592;47.484;9.726;2022-12-11T04:01:11;0.70;99.90
13052;DHT22;6592;47.484;9.726;2022-12-11T04:03:39;0.60;99.90
13052;DHT22;6592;47.484;9.726;2022-12-11T04:06:07;0.70;99.90
13052;DHT22;6592;47.484;9.726;2022-12-11T04:08:35;0.60;99.90
13052;DHT22;6592;47.484;9.726;2022-12-11T04:11:04;0.60;99.90
13052;DHT22;6592;47.484;9.726;2022-12-11T04:13:48;0.60;99.90
13052;DHT22;6592;47.484;9.726;2022-12-11T04:16:38;0.70;99.90
13052;DHT22;6592;47.484;9.726;2022-12-11T04:19:05;0.70;99.90
13052;DHT22;6592;47.484;9.726;2022-12-11T04:21:51;0.80;99.90
13052;DHT22;6592;47.484;9.726;2022-12-11T04:24:37;0.70;99.90
13052;DHT22;6592;47.484;9.726;2022-12-11T04:27:05;0.70;99.90
13052;DHT22;6592;47.484;9.726;2022-12-11T04:29:34;0.60;99.90
13052;DHT22;6592;47.484;9.726;2022-12-11T04:32:03;0.60;99.90
13052;DHT22;6592;47.484;9.726;2022-12-11T04:34:32;0.60;99.90
13052;DHT22;6592;47.484;9.726;2022-12-11T04:37:00;0.60;99.90
13052;DHT22;6592;47.484;9.726;2022-12-11T04:39:28;0.60;99.90
13052;DHT22;6592;47.484;9.726;2022-12-11T04:41:57;0.60;99.90
13052;DHT22;6592;47.484;9.726;2022-12-11T04:44:25;0.60;99.90
13052;DHT22;6592;47.484;9.726;2022-12-11T04:46:55;0.60;99.90
13052;DHT22;6592;47.484;9.726;2022-12-11T04:49:25;0.60;99.90
13052;DHT22;6592;47.484;9.726;2022-12-11T04:51:53;0.60;99.90
13052;DHT22;6592;47.484;9.726;2022-12-11T04:54:21;0.60;99.90
13052;DHT22;6592;47.484;9.726;2022-12-11T04:56:49;0.60;99.90
13052;DHT22;6592;47.484;9.726;2022-12-11T04:59:18;0.60;99.90
13052;DHT22;6592;47.484;9.726;2022-12-11T05:01:46;0.60;99.90
13052;DHT22;6592;47.484;9.726;2022-12-11T05:04:14;0.70;99.90
13052;DHT22;6592;47.484;9.726;2022-12-11T05:06:44;0.60;99.90
13052;DHT22;6592;47.484;9.726;2022-12-11T05:09:12;0.60;99.90
13052;DHT22;6592;47.484;9.726;2022-12-11T05:11:40;0.50;99.90
13052;DHT22;6592;47.484;9.726;2022-12-11T05:14:09;0.50;99.90
13052;DHT22;6592;47.484;9.726;2022-12-11T05:16:37;0.60;99.90
13052;DHT22;6592;47.484;9.726;2022-12-11T05:19:05;0.60;99.90
13052;DHT22;6592;47.484;9.726;2022-12-11T05:21:34;0.60;99.90
13052;DHT22;6592;47.484;9.726;2022-12-11T05:24:04;0.60;99.90
13052;DHT22;6592;47.484;9.726;2022-12-11T05:26:32;0.50;99.90
13052;DHT22;6592;47.484;9.726;2022-12-11T05:29:00;0.50;99.90
13052;DHT22;6592;47.484;9.726;2022-12-11T05:31:29;0.50;99.90
13052;DHT22;6592;47.484;9.726;2022-12-11T05:33:57;0.50;99.90
13052;DHT22;6592;47.484;9.726;2022-12-11T05:36:26;0.50;99.90
13052;DHT22;6592;47.484;9.726;2022-12-11T05:38:56;0.60;99.90
13052;DHT22;6592;47.484;9.726;2022-12-11T05:41:31;0.50;99.90
13052;DHT22;6592;47.484;9.726;2022-12-11T05:43:59;0.60;99.90
13052;DHT22;6592;47.484;9.726;2022-12-11T05:46:29;0.50;99.90
13052;DHT22;6592;47.484;9.726;2022-12-11T05:48:59;0.50;99.90
13052;DHT22;6592;47.484;9.726;2022-12-11T05:51:29;0.50;99.90
13052;DHT22;6592;47.484;9.726;2022-12-11T05:53:59;0.50;99.90
13052;DHT22;6592;47.484;9.726;2022-12-11T05:56:31;0.40;99.90
13052;DHT22;6592;47.484;9.726;2022-12-11T05:59:01;0.30;99.90
13052;DHT22;6592;47.484;9.726;2022-12-11T06:01:32;0.40;99.90
13052;DHT22;6592;47.484;9.726;2022-12-11T06:04:01;0.30;99.90
13052;DHT22;6592;47.484;9.726;2022-12-11T06:06:30;0.10;99.90
13052;DHT22;6592;47.484;9.726;2022-12-11T06:08:59;0.00;99.90
13052;DHT22;6592;47.484;9.726;2022-12-11T06:11:30;0.00;99.90
13052;DHT22;6592;47.484;9.726;2022-12-11T06:14:00;0.00;99.90
13052;DHT22;6592;47.484;9.726;2022-12-11T06:16:28;0.00;99.90
13052;DHT22;6592;47.484;9.726;2022-12-11T06:18:57;0.00;99.90
13052;DHT22;6592;47.484;9.726;2022-12-11T06:21:27;0.00;99.90
13052;DHT22;6592;47.484;9.726;2022-12-11T06:23:57;-0.10;99.90
13052;DHT22;6592;47.484;9.726;2022-12-11T06:26:26;-0.10;99.90
13052;DHT22;6592;47.484;9.726;2022-12-11T06:28:56;-0.10;99.90
13052;DHT22;6592;47.484;9.726;2022-12-11T06:31:25;-0.20;99.90
13052;DHT22;6592;47.484;9.726;2022-12-11T06:33:53;-0.10;99.90
13052;DHT22;6592;47.484;9.726;2022-12-11T06:36:23;-0.40;99.90
13052;DHT22;6592;47.484;9.726;2022-12-11T06:38:51;-0.40;99.90
13052;DHT22;6592;47.484;9.726;2022-12-11T06:41:20;-0.50;99.90
13052;DHT22;6592;47.484;9.726;2022-12-11T06:43:48;-0.50;99.90
13052;DHT22;6592;47.484;9.726;2022-12-11T06:46:18;-0.30;99.90
13052;DHT22;6592;47.484;9.726;2022-12-11T06:48:48;-0.60;99.90
13052;DHT22;6592;47.484;9.726;2022-12-11T06:51:17;-0.50;99.90
13052;DHT22;6592;47.484;9.726;2022-12-11T06:53:50;-0.70;99.90
13052;DHT22;6592;47.484;9.726;2022-12-11T06:56:19;-0.70;99.90
13052;DHT22;6592;47.484;9.726;2022-12-11T06:58:48;-0.70;99.90
13052;DHT22;6592;47.484;9.726;2022-12-11T07:01:22;-0.80;99.90
13052;DHT22;6592;47.484;9.726;2022-12-11T07:03:52;-0.70;99.90
13052;DHT22;6592;47.484;9.726;2022-12-11T07:06:21;-0.70;99.90
13052;DHT22;6592;47.484;9.726;2022-12-11T07:08:50;-0.80;99.90
13052;DHT22;6592;47.484;9.726;2022-12-11T07:11:19;-0.70;99.90
13052;DHT22;6592;47.484;9.726;2022-12-11T07:13:47;-0.60;99.90
13052;DHT22;6592;47.484;9.726;2022-12-11T07:16:16;-0.60;99.90
13052;DHT22;6592;47.484;9.726;2022-12-11T07:18:48;-0.70;99.90
13052;DHT22;6592;47.484;9.726;2022-12-11T07:21:17;-0.70;99.90
13052;DHT22;6592;47.484;9.726;2022-12-11T07:23:47;-0.60;99.90
13052;DHT22;6592;47.484;9.726;2022-12-11T07:26:18;-0.70;99.90
13052;DHT22;6592;47.484;9.726;2022-12-11T07:28:47;-0.60;99.90
13052;DHT22;6592;47.484;9.726;2022-12-11T07:31:16;-0.70;99.90
13052;DHT22;6592;47.484;9.726;2022-12-11T07:33:51;-0.50;99.90
13052;DHT22;6592;47.484;9.726;2022-12-11T07:36:20;-0.70;99.90
13052;DHT22;6592;47.484;9.726;2022-12-11T07:38:48;-0.40;99.90
13052;DHT22;6592;47.484;9.726;2022-12-11T07:41:17;-0.60;99.90
13052;DHT22;6592;47.484;9.726;2022-12-11T07:43:46;-0.50;99.90
13052;DHT22;6592;47.484;9.726;2022-12-11T07:46:16;-0.50;99.90
13052;DHT22;6592;47.484;9.726;2022-12-11T07:48:47;-0.50;99.90
13052;DHT22;6592;47.484;9.726;2022-12-11T07:51:17;-0.40;99.90
13052;DHT22;6592;47.484;9.726;2022-12-11T07:53:48;-0.40;99.90
13052;DHT22;6592;47.484;9.726;2022-12-11T07:56:17;-0.40;99.90
13052;DHT22;6592;47.484;9.726;2022-12-11T07:58:46;-0.30;99.90
13052;DHT22;6592;47.484;9.726;2022-12-11T08:01:16;0.00;99.90
13052;DHT22;6592;47.484;9.726;2022-12-11T08:03:46;0.10;99.90
13052;DHT22;6592;47.484;9.726;2022-12-11T08:06:15;0.20;99.90
13052;DHT22;6592;47.484;9.726;2022-12-11T08:08:43;0.30;99.90
13052;DHT22;6592;47.484;9.726;2022-12-11T08:11:14;0.40;99.90
13052;DHT22;6592;47.484;9.726;2022-12-11T08:13:43;0.50;99.90
13052;DHT22;6592;47.484;9.726;2022-12-11T08:16:13;0.60;99.90
13052;DHT22;6592;47.484;9.726;2022-12-11T08:18:43;0.90;99.90
13052;DHT22;6592;47.484;9.726;2022-12-11T08:21:14;1.70;99.90
13052;DHT22;6592;47.484;9.726;2022-12-11T08:23:43;2.70;99.90
13052;DHT22;6592;47.484;9.726;2022-12-11T08:26:14;3.50;99.90
13052;DHT22;6592;47.484;9.726;2022-12-11T08:28:42;3.80;99.90
13052;DHT22;6592;47.484;9.726;2022-12-11T08:31:12;3.80;99.90
13052;DHT22;6592;47.484;9.726;2022-12-11T08:33:42;3.60;99.90
13052;DHT22;6592;47.484;9.726;2022-12-11T08:36:14;3.40;99.90
13052;DHT22;6592;47.484;9.726;2022-12-11T08:38:43;3.30;99.90
13052;DHT22;6592;47.484;9.726;2022-12-11T08:41:14;3.30;99.90
13052;DHT22;6592;47.484;9.726;2022-12-11T08:43:42;3.50;99.90
13052;DHT22;6592;47.484;9.726;2022-12-11T08:46:11;4.30;99.90
13052;DHT22;6592;47.484;9.726;2022-12-11T08:48:41;5.20;99.90
13052;DHT22;6592;47.484;9.726;2022-12-11T08:51:13;5.90;99.90
13052;DHT22;6592;47.484;9.726;2022-12-11T08:53:42;5.90;99.90
13052;DHT22;6592;47.484;9.726;2022-12-11T08:56:12;5.50;99.90
13052;DHT22;6592;47.484;9.726;2022-12-11T08:58:40;5.40;99.90
13052;DHT22;6592;47.484;9.726;2022-12-11T09:01:10;6.30;99.90
13052;DHT22;6592;47.484;9.726;2022-12-11T09:03:40;6.80;99.90
13052;DHT22;6592;47.484;9.726;2022-12-11T09:06:10;6.70;99.90
13052;DHT22;6592;47.484;9.726;2022-12-11T09:08:40;6.60;99.90
13052;DHT22;6592;47.484;9.726;2022-12-11T09:11:19;7.70;99.90
13052;DHT22;6592;47.484;9.726;2022-12-11T09:13:48;8.90;99.90
13052;DHT22;6592;47.484;9.726;2022-12-11T09:16:19;9.10;99.90
13052;DHT22;6592;47.484;9.726;2022-12-11T09:18:49;8.80;99.90
13052;DHT22;6592;47.484;9.726;2022-12-11T09:21:20;8.30;99.90
13052;DHT22;6592;47.484;9.726;2022-12-11T09:23:52;7.70;99.90
13052;DHT22;6592;47.484;9.726;2022-12-11T09:26:21;7.20;99.90
13052;DHT22;6592;47.484;9.726;2022-12-11T09:28:49;7.00;99.90
13052;DHT22;6592;47.484;9.726;2022-12-11T09:31:21;7.20;99.90
13052;DHT22;6592;47.484;9.726;2022-12-11T09:33:52;8.00;99.90
13052;DHT22;6592;47.484;9.726;2022-12-11T09:36:21;8.90;99.90
13052;DHT22;6592;47.484;9.726;2022-12-11T09:38:51;9.80;99.90
13052;DHT22;6592;47.484;9.726;2022-12-11T09:41:31;10.50;99.90
13052;DHT22;6592;47.484;9.726;2022-12-11T09:44:18;11.70;99.90
13052;DHT22;6592;47.484;9.726;2022-12-11T09:46:47;13.10;99.90
13052;DHT22;6592;47.484;9.726;2022-12-11T09:49:27;14.30;99.90
13052;DHT22;6592;47.484;9.726;2022-12-11T09:52:07;15.30;96.50
13052;DHT22;6592;47.484;9.726;2022-12-11T09:54:42;16.20;92.30
13052;DHT22;6592;47.484;9.726;2022-12-11T09:57:23;16.60;82.80
13052;DHT22;6592;47.484;9.726;2022-12-11T10:00:04;17.10;80.20
13052;DHT22;6592;47.484;9.726;2022-12-11T10:02:51;18.00;79.20
13052;DHT22;6592;47.484;9.726;2022-12-11T10:05:28;19.00;71.90
13052;DHT22;6592;47.484;9.726;2022-12-11T10:08:02;19.70;70.10
13052;DHT22;6592;47.484;9.726;2022-12-11T10:10:40;20.20;63.20
13052;DHT22;6592;47.484;9.726;2022-12-11T10:13:16;20.60;57.20
13052;DHT22;6592;47.484;9.726;2022-12-11T10:15:53;20.40;59.40
13052;DHT22;6592;47.484;9.726;2022-12-11T10:18:25;21.10;57.50
13052;DHT22;6592;47.484;9.726;2022-12-11T10:20:56;20.20;55.40
13052;DHT22;6592;47.484;9.726;2022-12-11T10:23:31;20.80;53.50
13052;DHT22;6592;47.484;9.726;2022-12-11T10:26:06;20.20;53.30
13052;DHT22;6592;47.484;9.726;2022-12-11T10:28:35;19.90;53.30
13052;DHT22;6592;47.484;9.726;2022-12-11T10:31:11;19.30;56.00
13052;DHT22;6592;47.484;9.726;2022-12-11T10:33:49;19.60;55.30
13052;DHT22;6592;47.484;9.726;2022-12-11T10:36:26;20.20;52.60
13052;DHT22;6592;47.484;9.726;2022-12-11T10:38:55;20.60;53.20
13052;DHT22;6592;47.484;9.726;2022-12-11T10:41:33;20.90;52.20
13052;DHT22;6592;47.484;9.726;2022-12-11T10:44:14;21.40;49.10
13052;DHT22;6592;47.484;9.726;2022-12-11T10:46:43;20.60;48.80
13052;DHT22;6592;47.484;9.726;2022-12-11T10:49:22;21.00;49.50
13052;DHT22;6592;47.484;9.726;2022-12-11T10:51:52;21.50;46.90
13052;DHT22;6592;47.484;9.726;2022-12-11T10:54:32;22.30;46.20
13052;DHT22;6592;47.484;9.726;2022-12-11T10:57:07;21.90;46.30
13052;DHT22;6592;47.484;9.726;2022-12-11T10:59:39;22.00;44.20
13052;DHT22;6592;47.484;9.726;2022-12-11T11:02:22;21.90;41.80
13052;DHT22;6592;47.484;9.726;2022-12-11T11:04:52;21.30;42.70
13052;DHT22;6592;47.484;9.726;2022-12-11T11:07:23;21.00;46.50
13052;DHT22;6592;47.484;9.726;2022-12-11T11:10:05;21.10;45.40
13052;DHT22;6592;47.484;9.726;2022-12-11T11:12:39;21.60;41.90
13052;DHT22;6592;47.484;9.726;2022-12-11T11:15:11;21.30;45.10
13052;DHT22;6592;47.484;9.726;2022-12-11T11:17:43;22.30;44.70
13052;DHT22;6592;47.484;9.726;2022-12-11T11:20:22;22.30;40.20
13052;DHT22;6592;47.484;9.726;2022-12-11T11:22:53;21.70;44.70
13052;DHT22;6592;47.484;9.726;2022-12-11T11:25:23;22.00;43.70
13052;DHT22;6592;47.484;9.726;2022-12-11T11:27:55;22.20;43.30
13052;DHT22;6592;47.484;9.726;2022-12-11T11:30:26;22.90;39.20
13052;DHT22;6592;47.484;9.726;2022-12-11T11:32:56;22.70;42.00
13052;DHT22;6592;47.484;9.726;2022-12-11T11:35:28;22.70;43.00
13052;DHT22;6592;47.484;9.726;2022-12-11T11:38:01;22.80;43.10
13052;DHT22;6592;47.484;9.726;2022-12-11T11:40:34;21.60;43.40
13052;DHT22;6592;47.484;9.726;2022-12-11T11:43:13;22.20;43.10
13052;DHT22;6592;47.484;9.726;2022-12-11T11:45:48;22.60;44.00
13052;DHT22;6592;47.484;9.726;2022-12-11T11:48:30;21.80;41.80
13052;DHT22;6592;47.484;9.726;2022-12-11T11:51:06;22.50;43.00
13052;DHT22;6592;47.484;9.726;2022-12-11T11:53:39;22.30;42.30
13052;DHT22;6592;47.484;9.726;2022-12-11T11:56:17;22.10;42.70
13052;DHT22;6592;47.484;9.726;2022-12-11T11:58:56;22.50;42.30
13052;DHT22;6592;47.484;9.726;2022-12-11T12:01:27;21.80;43.30
13052;DHT22;6592;47.484;9.726;2022-12-11T12:03:56;21.50;44.40
13052;DHT22;6592;47.484;9.726;2022-12-11T12:06:32;21.80;45.40
13052;DHT22;6592;47.484;9.726;2022-12-11T12:09:07;21.90;42.90
13052;DHT22;6592;47.484;9.726;2022-12-11T12:11:46;21.70;44.20
13052;DHT22;6592;47.484;9.726;2022-12-11T12:14:20;21.50;44.50
13052;DHT22;6592;47.484;9.726;2022-12-11T12:17:15;21.30;46.50
13052;DHT22;6592;47.484;9.726;2022-12-11T12:19:52;21.30;45.40
13052;DHT22;6592;47.484;9.726;2022-12-11T12:22:34;21.00;44.80
13052;DHT22;6592;47.484;9.726;2022-12-11T12:25:15;21.00;46.00
13052;DHT22;6592;47.484;9.726;2022-12-11T12:27:54;21.30;44.90
13052;DHT22;6592;47.484;9.726;2022-12-11T12:30:30;21.10;45.30
13052;DHT22;6592;47.484;9.726;2022-12-11T12:33:15;21.20;46.00
13052;DHT22;6592;47.484;9.726;2022-12-11T12:35:48;20.80;46.10
13052;DHT22;6592;47.484;9.726;2022-12-11T12:38:21;20.50;46.40
13052;DHT22;6592;47.484;9.726;2022-12-11T12:40:58;20.60;47.30
13052;DHT22;6592;47.484;9.726;2022-12-11T12:43:40;20.80;47.00
13052;DHT22;6592;47.484;9.726;2022-12-11T12:46:20;21.00;46.10
13052;DHT22;6592;47.484;9.726;2022-12-11T12:48:51;20.80;46.60
13052;DHT22;6592;47.484;9.726;2022-12-11T12:51:22;20.70;46.50
13052;DHT22;6592;47.484;9.726;2022-12-11T12:53:54;20.60;45.90
13052;DHT22;6592;47.484;9.726;2022-12-11T12:56:24;20.80;46.40
13052;DHT22;6592;47.484;9.726;2022-12-11T12:58:53;20.70;45.60
13052;DHT22;6592;47.484;9.726;2022-12-11T13:01:23;20.20;46.70
13052;DHT22;6592;47.484;9.726;2022-12-11T13:03:55;20.10;46.10
13052;DHT22;6592;47.484;9.726;2022-12-11T13:06:29;19.90;46.10
13052;DHT22;6592;47.484;9.726;2022-12-11T13:09:11;20.10;46.00
13052;DHT22;6592;47.484;9.726;2022-12-11T13:11:41;20.30;46.10
13052;DHT22;6592;47.484;9.726;2022-12-11T13:14:24;19.50;44.80
13052;DHT22;6592;47.484;9.726;2022-12-11T13:17:22;19.30;46.40
13052;DHT22;6592;47.484;9.726;2022-12-11T13:20:09;19.20;46.90
13052;DHT22;6592;47.484;9.726;2022-12-11T13:22:49;19.60;45.60
13052;DHT22;6592;47.484;9.726;2022-12-11T13:25:24;19.90;45.40
13052;DHT22;6592;47.484;9.726;2022-12-11T13:28:04;19.90;46.50
13052;DHT22;6592;47.484;9.726;2022-12-11T13:30:32;19.90;46.60
13052;DHT22;6592;47.484;9.726;2022-12-11T13:33:05;19.90;46.10
13052;DHT22;6592;47.484;9.726;2022-12-11T13:35:34;19.80;45.70
13052;DHT22;6592;47.484;9.726;2022-12-11T13:38:05;19.80;44.90
13052;DHT22;6592;47.484;9.726;2022-12-11T13:40:37;19.80;46.50
13052;DHT22;6592;47.484;9.726;2022-12-11T13:43:15;20.00;46.50
13052;DHT22;6592;47.484;9.726;2022-12-11T13:45:47;20.30;45.70
13052;DHT22;6592;47.484;9.726;2022-12-11T13:48:22;20.00;45.00
13052;DHT22;6592;47.484;9.726;2022-12-11T13:50:51;19.20;45.60
13052;DHT22;6592;47.484;9.726;2022-12-11T13:53:21;18.40;46.10
13052;DHT22;6592;47.484;9.726;2022-12-11T13:55:57;17.70;47.60
13052;DHT22;6592;47.484;9.726;2022-12-11T13:58:26;17.00;48.00
13052;DHT22;6592;47.484;9.726;2022-12-11T14:01:05;16.30;48.40
13052;DHT22;6592;47.484;9.726;2022-12-11T14:03:38;15.80;49.90
13052;DHT22;6592;47.484;9.726;2022-12-11T14:06:09;15.20;50.40
13052;DHT22;6592;47.484;9.726;2022-12-11T14:08:47;14.70;50.20
13052;DHT22;6592;47.484;9.726;2022-12-11T14:11:21;13.50;51.30
13052;DHT22;6592;47.484;9.726;2022-12-11T14:13:50;12.70;52.80
13052;DHT22;6592;47.484;9.726;2022-12-11T14:16:20;12.00;54.40
13052;DHT22;6592;47.484;9.726;2022-12-11T14:18:51;11.00;55.60
13052;DHT22;6592;47.484;9.726;2022-12-11T14:21:22;10.20;56.50
13052;DHT22;6592;47.484;9.726;2022-12-11T14:23:52;9.40;58.00
13052;DHT22;6592;47.484;9.726;2022-12-11T14:26:22;8.80;58.30
13052;DHT22;6592;47.484;9.726;2022-12-11T14:28:51;8.00;59.50
13052;DHT22;6592;47.484;9.726;2022-12-11T14:31:25;7.60;60.30
13052;DHT22;6592;47.484;9.726;2022-12-11T14:34:01;7.20;62.40
13052;DHT22;6592;47.484;9.726;2022-12-11T14:36:31;6.80;63.50
13052;DHT22;6592;47.484;9.726;2022-12-11T14:39:02;6.40;65.00
13052;DHT22;6592;47.484;9.726;2022-12-11T14:41:40;6.10;66.60
13052;DHT22;6592;47.484;9.726;2022-12-11T14:44:13;5.50;69.10
13052;DHT22;6592;47.484;9.726;2022-12-11T14:46:44;5.30;70.50
13052;DHT22;6592;47.484;9.726;2022-12-11T14:49:20;4.60;74.00
13052;DHT22;6592;47.484;9.726;2022-12-11T14:51:52;4.40;74.10
13052;DHT22;6592;47.484;9.726;2022-12-11T14:54:26;4.20;75.90
13052;DHT22;6592;47.484;9.726;2022-12-11T14:56:56;3.90;77.60
13052;DHT22;6592;47.484;9.726;2022-12-11T14:59:25;3.80;77.60
13052;DHT22;6592;47.484;9.726;2022-12-11T15:01:59;3.60;79.30
13052;DHT22;6592;47.484;9.726;2022-12-11T15:04:31;3.50;81.20
13052;DHT22;6592;47.484;9.726;2022-12-11T15:07:00;3.40;80.70
13052;DHT22;6592;47.484;9.726;2022-12-11T15:09:36;3.30;81.80
13052;DHT22;6592;47.484;9.726;2022-12-11T15:12:09;3.20;83.10
13052;DHT22;6592;47.484;9.726;2022-12-11T15:17:11;2.90;85.70
13052;DHT22;6592;47.484;9.726;2022-12-11T15:19:46;2.80;86.00
13052;DHT22;6592;47.484;9.726;2022-12-11T15:22:17;2.70;87.30
13052;DHT22;6592;47.484;9.726;2022-12-11T15:24:49;2.60;88.80
13052;DHT22;6592;47.484;9.726;2022-12-11T15:27:22;2.50;90.40
13052;DHT22;6592;47.484;9.726;2022-12-11T15:29:52;2.40;91.20
13052;DHT22;6592;47.484;9.726;2022-12-11T15:32:21;2.30;91.60
13052;DHT22;6592;47.484;9.726;2022-12-11T15:34:52;2.20;92.70
13052;DHT22;6592;47.484;9.726;2022-12-11T15:37:23;2.10;93.90
13052;DHT22;6592;47.484;9.726;2022-12-11T15:39:53;2.00;94.90
13052;DHT22;6592;47.484;9.726;2022-12-11T15:42:26;1.90;95.80
13052;DHT22;6592;47.484;9.726;2022-12-11T15:44:55;1.80;97.50
13052;DHT22;6592;47.484;9.726;2022-12-11T15:47:25;1.60;98.50
13052;DHT22;6592;47.484;9.726;2022-12-11T15:49:57;1.60;99.80
13052;DHT22;6592;47.484;9.726;2022-12-11T15:52:26;1.50;99.90
13052;DHT22;6592;47.484;9.726;2022-12-11T15:54:55;1.40;99.90
13052;DHT22;6592;47.484;9.726;2022-12-11T15:57:23;1.20;99.90
13052;DHT22;6592;47.484;9.726;2022-12-11T15:59:53;1.10;99.90
13052;DHT22;6592;47.484;9.726;2022-12-11T16:02:22;1.00;99.90
13052;DHT22;6592;47.484;9.726;2022-12-11T16:04:52;0.90;99.90
13052;DHT22;6592;47.484;9.726;2022-12-11T16:07:23;0.80;99.90
13052;DHT22;6592;47.484;9.726;2022-12-11T16:09:52;0.60;99.90
13052;DHT22;6592;47.484;9.726;2022-12-11T16:14:49;0.40;99.90
13052;DHT22;6592;47.484;9.726;2022-12-11T16:22:14;0.00;99.90
13052;DHT22;6592;47.484;9.726;2022-12-11T16:24:44;0.30;99.90
13052;DHT22;6592;47.484;9.726;2022-12-11T16:27:13;0.00;99.90
13052;DHT22;6592;47.484;9.726;2022-12-11T16:29:48;0.00;99.90
13052;DHT22;6592;47.484;9.726;2022-12-11T16:32:17;-0.20;99.90
13052;DHT22;6592;47.484;9.726;2022-12-11T16:34:45;0.00;99.90